Terminal Aerodrome Forecast
Issued by NWS

Home | Current Version | Previous Version | Text Only | Print | Product List | Glossary On
Versions: 1 2 3 4 5 6 7 8 9 10 11 12 13 14 15 16 17 18 19 20 21
000
FTUS43 KIND 231423 AAB
TAFLAF
TAF AMD
KLAF 231423Z 2314/2412 VRB03KT 4SM BR SCT005
     FM231600 VRB03KT P6SM BKN008
     FM231700 VRB03KT P6SM BKN060
     FM232100 06005KT P6SM VCSH BKN025
     FM232300 07006KT P6SM VCSH OVC035
     FM240200 10007KT P6SM VCSH OVC015
     FM240600 15009KT P6SM OVC020
     FM240900 18012KT P6SM BKN040
      AMD LTD TO CLD VIS AND WIND TIL 231400=

USA.gov is the U.S. government's official web portal to all federal, state and local government web resources and services.